sensor_id;sensor_type;location;lat;lon;timestamp;temperature;humidity
12006;DHT22;6062;47.294;12.182;2023-03-14T00:02:08;7.30;52.30
12006;DHT22;6062;47.294;12.182;2023-03-14T00:04:34;7.30;52.40
12006;DHT22;6062;47.294;12.182;2023-03-14T00:07:00;7.30;52.50
12006;DHT22;6062;47.294;12.182;2023-03-14T00:09:26;7.30;52.50
12006;DHT22;6062;47.294;12.182;2023-03-14T00:11:55;7.30;52.40
12006;DHT22;6062;47.294;12.182;2023-03-14T00:14:22;7.30;52.30
12006;DHT22;6062;47.294;12.182;2023-03-14T00:16:48;7.30;52.30
12006;DHT22;6062;47.294;12.182;2023-03-14T00:19:14;7.30;52.40
12006;DHT22;6062;47.294;12.182;2023-03-14T00:21:40;7.30;52.40
12006;DHT22;6062;47.294;12.182;2023-03-14T00:24:06;7.30;52.30
12006;DHT22;6062;47.294;12.182;2023-03-14T00:26:32;7.30;52.40
12006;DHT22;6062;47.294;12.182;2023-03-14T00:28:58;7.30;52.40
12006;DHT22;6062;47.294;12.182;2023-03-14T00:31:24;7.30;52.50
12006;DHT22;6062;47.294;12.182;2023-03-14T00:33:52;7.30;52.60
12006;DHT22;6062;47.294;12.182;2023-03-14T00:36:18;7.30;52.60
12006;DHT22;6062;47.294;12.182;2023-03-14T00:38:47;7.30;52.60
12006;DHT22;6062;47.294;12.182;2023-03-14T00:41:18;7.30;52.70
12006;DHT22;6062;47.294;12.182;2023-03-14T00:43:47;7.30;52.70
12006;DHT22;6062;47.294;12.182;2023-03-14T00:46:14;7.30;52.70
12006;DHT22;6062;47.294;12.182;2023-03-14T00:48:39;7.30;52.90
12006;DHT22;6062;47.294;12.182;2023-03-14T00:51:07;7.20;52.90
12006;DHT22;6062;47.294;12.182;2023-03-14T00:53:38;7.20;53.10
12006;DHT22;6062;47.294;12.182;2023-03-14T00:56:07;7.20;53.20
12006;DHT22;6062;47.294;12.182;2023-03-14T00:58:34;7.20;53.50
12006;DHT22;6062;47.294;12.182;2023-03-14T01:01:09;7.10;53.40
12006;DHT22;6062;47.294;12.182;2023-03-14T01:03:38;7.10;53.50
12006;DHT22;6062;47.294;12.182;2023-03-14T01:06:24;7.10;54.20
12006;DHT22;6062;47.294;12.182;2023-03-14T01:08:52;7.10;54.80
12006;DHT22;6062;47.294;12.182;2023-03-14T01:11:24;7.10;54.70
12006;DHT22;6062;47.294;12.182;2023-03-14T01:13:52;7.10;55.10
12006;DHT22;6062;47.294;12.182;2023-03-14T01:16:19;7.20;55.40
12006;DHT22;6062;47.294;12.182;2023-03-14T01:18:47;7.20;55.50
12006;DHT22;6062;47.294;12.182;2023-03-14T01:21:14;7.20;55.60
12006;DHT22;6062;47.294;12.182;2023-03-14T01:23:42;7.20;55.50
12006;DHT22;6062;47.294;12.182;2023-03-14T01:26:11;7.30;56.00
12006;DHT22;6062;47.294;12.182;2023-03-14T01:28:39;7.30;56.20
12006;DHT22;6062;47.294;12.182;2023-03-14T01:31:06;7.30;55.90
12006;DHT22;6062;47.294;12.182;2023-03-14T01:33:34;7.30;55.80
12006;DHT22;6062;47.294;12.182;2023-03-14T01:36:00;7.30;55.70
12006;DHT22;6062;47.294;12.182;2023-03-14T01:38:28;7.40;55.60
12006;DHT22;6062;47.294;12.182;2023-03-14T01:40:55;7.30;55.40
12006;DHT22;6062;47.294;12.182;2023-03-14T01:43:21;7.40;55.40
12006;DHT22;6062;47.294;12.182;2023-03-14T01:51:51;7.50;55.40
12006;DHT22;6062;47.294;12.182;2023-03-14T01:57:10;7.60;55.20
12006;DHT22;6062;47.294;12.182;2023-03-14T01:59:39;7.60;55.30
12006;DHT22;6062;47.294;12.182;2023-03-14T02:02:09;7.60;55.10
12006;DHT22;6062;47.294;12.182;2023-03-14T02:04:38;7.60;55.00
12006;DHT22;6062;47.294;12.182;2023-03-14T02:07:10;7.70;55.10
12006;DHT22;6062;47.294;12.182;2023-03-14T02:09:40;7.70;55.00
12006;DHT22;6062;47.294;12.182;2023-03-14T02:12:08;7.70;54.90
12006;DHT22;6062;47.294;12.182;2023-03-14T02:14:37;7.70;55.00
12006;DHT22;6062;47.294;12.182;2023-03-14T02:17:05;7.70;55.00
12006;DHT22;6062;47.294;12.182;2023-03-14T02:22:31;7.70;55.20
12006;DHT22;6062;47.294;12.182;2023-03-14T02:25:15;7.70;55.00
12006;DHT22;6062;47.294;12.182;2023-03-14T02:27:49;7.80;55.30
12006;DHT22;6062;47.294;12.182;2023-03-14T02:30:36;7.70;55.00
12006;DHT22;6062;47.294;12.182;2023-03-14T02:33:16;7.70;55.40
12006;DHT22;6062;47.294;12.182;2023-03-14T02:35:52;7.70;55.40
12006;DHT22;6062;47.294;12.182;2023-03-14T02:38:35;7.70;55.30
12006;DHT22;6062;47.294;12.182;2023-03-14T02:41:07;7.70;55.40
12006;DHT22;6062;47.294;12.182;2023-03-14T02:43:33;7.70;55.40
12006;DHT22;6062;47.294;12.182;2023-03-14T02:46:00;7.70;55.10
12006;DHT22;6062;47.294;12.182;2023-03-14T02:48:38;7.60;54.90
12006;DHT22;6062;47.294;12.182;2023-03-14T02:51:06;7.60;55.40
12006;DHT22;6062;47.294;12.182;2023-03-14T02:53:35;7.60;54.40
12006;DHT22;6062;47.294;12.182;2023-03-14T02:56:03;7.50;54.40
12006;DHT22;6062;47.294;12.182;2023-03-14T02:58:29;7.40;54.50
12006;DHT22;6062;47.294;12.182;2023-03-14T03:00:55;7.30;54.70
12006;DHT22;6062;47.294;12.182;2023-03-14T03:03:21;7.30;54.90
12006;DHT22;6062;47.294;12.182;2023-03-14T03:05:51;7.20;54.80
12006;DHT22;6062;47.294;12.182;2023-03-14T03:08:23;7.10;54.90
12006;DHT22;6062;47.294;12.182;2023-03-14T03:10:50;7.10;55.00
12006;DHT22;6062;47.294;12.182;2023-03-14T03:13:17;7.10;55.10
12006;DHT22;6062;47.294;12.182;2023-03-14T03:15:43;7.00;55.40
12006;DHT22;6062;47.294;12.182;2023-03-14T03:18:09;7.00;55.90
12006;DHT22;6062;47.294;12.182;2023-03-14T03:20:35;6.90;56.40
12006;DHT22;6062;47.294;12.182;2023-03-14T03:23:01;6.80;56.30
12006;DHT22;6062;47.294;12.182;2023-03-14T03:25:27;6.80;56.50
12006;DHT22;6062;47.294;12.182;2023-03-14T03:27:53;6.70;56.80
12006;DHT22;6062;47.294;12.182;2023-03-14T03:30:19;6.70;57.10
12006;DHT22;6062;47.294;12.182;2023-03-14T03:32:45;6.60;57.60
12006;DHT22;6062;47.294;12.182;2023-03-14T03:35:11;6.60;57.80
12006;DHT22;6062;47.294;12.182;2023-03-14T03:37:37;6.50;58.40
12006;DHT22;6062;47.294;12.182;2023-03-14T03:40:03;6.50;58.60
12006;DHT22;6062;47.294;12.182;2023-03-14T03:42:32;6.40;58.60
12006;DHT22;6062;47.294;12.182;2023-03-14T03:44:59;6.40;58.70
12006;DHT22;6062;47.294;12.182;2023-03-14T03:47:26;6.40;59.30
12006;DHT22;6062;47.294;12.182;2023-03-14T03:49:52;6.40;59.70
12006;DHT22;6062;47.294;12.182;2023-03-14T03:52:18;6.40;60.00
12006;DHT22;6062;47.294;12.182;2023-03-14T03:54:44;6.30;60.50
12006;DHT22;6062;47.294;12.182;2023-03-14T03:57:10;6.30;60.70
12006;DHT22;6062;47.294;12.182;2023-03-14T03:59:35;6.30;60.90
12006;DHT22;6062;47.294;12.182;2023-03-14T04:02:01;6.20;61.00
12006;DHT22;6062;47.294;12.182;2023-03-14T04:04:27;6.20;61.20
12006;DHT22;6062;47.294;12.182;2023-03-14T04:06:52;6.20;61.00
12006;DHT22;6062;47.294;12.182;2023-03-14T04:09:18;6.20;60.90
12006;DHT22;6062;47.294;12.182;2023-03-14T04:11:44;6.20;61.00
12006;DHT22;6062;47.294;12.182;2023-03-14T04:14:09;6.20;61.10
12006;DHT22;6062;47.294;12.182;2023-03-14T04:16:35;6.10;61.10
12006;DHT22;6062;47.294;12.182;2023-03-14T04:19:02;6.10;61.10
12006;DHT22;6062;47.294;12.182;2023-03-14T04:21:28;6.10;61.30
12006;DHT22;6062;47.294;12.182;2023-03-14T04:23:54;6.10;61.60
12006;DHT22;6062;47.294;12.182;2023-03-14T04:26:19;6.00;62.00
12006;DHT22;6062;47.294;12.182;2023-03-14T04:28:45;6.00;61.70
12006;DHT22;6062;47.294;12.182;2023-03-14T04:31:14;6.00;61.60
12006;DHT22;6062;47.294;12.182;2023-03-14T04:33:42;5.90;61.60
12006;DHT22;6062;47.294;12.182;2023-03-14T04:36:08;5.80;61.40
12006;DHT22;6062;47.294;12.182;2023-03-14T04:38:34;5.70;61.60
12006;DHT22;6062;47.294;12.182;2023-03-14T04:41:00;5.60;62.20
12006;DHT22;6062;47.294;12.182;2023-03-14T04:43:27;5.40;62.30
12006;DHT22;6062;47.294;12.182;2023-03-14T04:45:54;5.20;62.40
12006;DHT22;6062;47.294;12.182;2023-03-14T04:48:21;5.10;63.20
12006;DHT22;6062;47.294;12.182;2023-03-14T04:50:47;5.00;63.40
12006;DHT22;6062;47.294;12.182;2023-03-14T04:53:14;4.80;63.80
12006;DHT22;6062;47.294;12.182;2023-03-14T04:55:40;4.80;63.90
12006;DHT22;6062;47.294;12.182;2023-03-14T04:58:06;4.70;64.00
12006;DHT22;6062;47.294;12.182;2023-03-14T05:00:32;4.60;64.70
12006;DHT22;6062;47.294;12.182;2023-03-14T05:02:58;4.50;64.60
12006;DHT22;6062;47.294;12.182;2023-03-14T05:05:24;4.50;64.80
12006;DHT22;6062;47.294;12.182;2023-03-14T05:07:49;4.40;65.00
12006;DHT22;6062;47.294;12.182;2023-03-14T05:10:15;4.30;65.10
12006;DHT22;6062;47.294;12.182;2023-03-14T05:12:41;4.20;65.00
12006;DHT22;6062;47.294;12.182;2023-03-14T05:15:08;4.20;65.10
12006;DHT22;6062;47.294;12.182;2023-03-14T05:17:34;4.10;65.30
12006;DHT22;6062;47.294;12.182;2023-03-14T05:20:00;4.10;65.40
12006;DHT22;6062;47.294;12.182;2023-03-14T05:22:26;4.00;65.50
12006;DHT22;6062;47.294;12.182;2023-03-14T05:24:52;4.00;65.80
12006;DHT22;6062;47.294;12.182;2023-03-14T05:27:22;4.00;65.90
12006;DHT22;6062;47.294;12.182;2023-03-14T05:29:48;4.00;66.00
12006;DHT22;6062;47.294;12.182;2023-03-14T05:32:13;4.00;66.20
12006;DHT22;6062;47.294;12.182;2023-03-14T05:34:39;4.00;66.20
12006;DHT22;6062;47.294;12.182;2023-03-14T05:37:05;4.00;66.30
12006;DHT22;6062;47.294;12.182;2023-03-14T05:39:30;4.10;66.80
12006;DHT22;6062;47.294;12.182;2023-03-14T05:41:56;4.10;66.70
12006;DHT22;6062;47.294;12.182;2023-03-14T05:44:22;4.20;66.50
12006;DHT22;6062;47.294;12.182;2023-03-14T05:46:48;4.20;66.40
12006;DHT22;6062;47.294;12.182;2023-03-14T05:49:13;4.20;66.50
12006;DHT22;6062;47.294;12.182;2023-03-14T05:51:39;4.30;66.60
12006;DHT22;6062;47.294;12.182;2023-03-14T05:54:05;4.30;66.50
12006;DHT22;6062;47.294;12.182;2023-03-14T05:56:30;4.40;66.50
12006;DHT22;6062;47.294;12.182;2023-03-14T05:58:57;4.40;66.20
12006;DHT22;6062;47.294;12.182;2023-03-14T06:01:23;4.50;66.20
12006;DHT22;6062;47.294;12.182;2023-03-14T06:03:48;4.50;66.30
12006;DHT22;6062;47.294;12.182;2023-03-14T06:06:14;4.60;66.20
12006;DHT22;6062;47.294;12.182;2023-03-14T06:08:40;4.60;66.20
12006;DHT22;6062;47.294;12.182;2023-03-14T06:11:05;4.70;66.20
12006;DHT22;6062;47.294;12.182;2023-03-14T06:13:31;4.70;66.20
12006;DHT22;6062;47.294;12.182;2023-03-14T06:15:57;4.70;66.10
12006;DHT22;6062;47.294;12.182;2023-03-14T06:18:23;4.80;66.40
12006;DHT22;6062;47.294;12.182;2023-03-14T06:20:48;4.90;66.50
12006;DHT22;6062;47.294;12.182;2023-03-14T06:23:14;4.90;66.30
12006;DHT22;6062;47.294;12.182;2023-03-14T06:25:39;4.90;66.00
12006;DHT22;6062;47.294;12.182;2023-03-14T06:28:05;4.90;65.80
12006;DHT22;6062;47.294;12.182;2023-03-14T06:30:31;5.00;65.60
12006;DHT22;6062;47.294;12.182;2023-03-14T06:32:57;5.00;65.50
12006;DHT22;6062;47.294;12.182;2023-03-14T06:35:22;5.00;65.50
12006;DHT22;6062;47.294;12.182;2023-03-14T06:37:48;5.10;65.60
12006;DHT22;6062;47.294;12.182;2023-03-14T06:40:14;5.10;65.60
12006;DHT22;6062;47.294;12.182;2023-03-14T06:42:46;5.10;66.40
12006;DHT22;6062;47.294;12.182;2023-03-14T06:45:13;5.10;65.90
12006;DHT22;6062;47.294;12.182;2023-03-14T06:47:39;5.10;65.90
12006;DHT22;6062;47.294;12.182;2023-03-14T06:50:06;5.20;66.10
12006;DHT22;6062;47.294;12.182;2023-03-14T06:52:33;5.20;66.10
12006;DHT22;6062;47.294;12.182;2023-03-14T06:54:59;5.20;66.10
12006;DHT22;6062;47.294;12.182;2023-03-14T06:57:25;5.20;66.10
12006;DHT22;6062;47.294;12.182;2023-03-14T06:59:50;5.30;66.20
12006;DHT22;6062;47.294;12.182;2023-03-14T07:02:16;5.30;66.00
12006;DHT22;6062;47.294;12.182;2023-03-14T07:04:42;5.30;65.90
12006;DHT22;6062;47.294;12.182;2023-03-14T07:07:08;5.30;65.90
12006;DHT22;6062;47.294;12.182;2023-03-14T07:09:34;5.40;65.80
12006;DHT22;6062;47.294;12.182;2023-03-14T07:12:01;5.40;66.00
12006;DHT22;6062;47.294;12.182;2023-03-14T07:14:28;5.40;65.90
12006;DHT22;6062;47.294;12.182;2023-03-14T07:16:54;5.40;65.80
12006;DHT22;6062;47.294;12.182;2023-03-14T07:19:19;5.50;66.00
12006;DHT22;6062;47.294;12.182;2023-03-14T07:21:45;5.50;66.10
12006;DHT22;6062;47.294;12.182;2023-03-14T07:24:11;5.50;66.10
12006;DHT22;6062;47.294;12.182;2023-03-14T07:26:36;5.50;66.10
12006;DHT22;6062;47.294;12.182;2023-03-14T07:29:02;5.60;66.20
12006;DHT22;6062;47.294;12.182;2023-03-14T07:31:29;5.60;66.30
12006;DHT22;6062;47.294;12.182;2023-03-14T07:33:54;5.60;66.40
12006;DHT22;6062;47.294;12.182;2023-03-14T07:36:21;5.70;66.40
12006;DHT22;6062;47.294;12.182;2023-03-14T07:38:47;5.70;66.50
12006;DHT22;6062;47.294;12.182;2023-03-14T07:41:14;5.80;66.70
12006;DHT22;6062;47.294;12.182;2023-03-14T07:43:40;5.80;66.60
12006;DHT22;6062;47.294;12.182;2023-03-14T07:46:06;5.90;66.60
12006;DHT22;6062;47.294;12.182;2023-03-14T07:48:32;6.00;66.50
12006;DHT22;6062;47.294;12.182;2023-03-14T07:50:57;6.10;66.40
12006;DHT22;6062;47.294;12.182;2023-03-14T07:53:24;6.10;66.40
12006;DHT22;6062;47.294;12.182;2023-03-14T07:55:53;6.20;66.60
12006;DHT22;6062;47.294;12.182;2023-03-14T07:58:20;6.30;66.70
12006;DHT22;6062;47.294;12.182;2023-03-14T08:00:50;6.30;66.50
12006;DHT22;6062;47.294;12.182;2023-03-14T08:03:17;6.40;66.40
12006;DHT22;6062;47.294;12.182;2023-03-14T08:05:43;6.50;65.60
12006;DHT22;6062;47.294;12.182;2023-03-14T08:08:13;6.60;64.90
12006;DHT22;6062;47.294;12.182;2023-03-14T08:10:39;6.60;64.80
12006;DHT22;6062;47.294;12.182;2023-03-14T08:13:04;6.60;64.70
12006;DHT22;6062;47.294;12.182;2023-03-14T08:15:31;6.70;64.50
12006;DHT22;6062;47.294;12.182;2023-03-14T08:17:57;6.70;64.50
12006;DHT22;6062;47.294;12.182;2023-03-14T08:20:25;6.70;64.50
12006;DHT22;6062;47.294;12.182;2023-03-14T08:22:55;6.80;64.60
12006;DHT22;6062;47.294;12.182;2023-03-14T08:25:23;6.90;64.80
12006;DHT22;6062;47.294;12.182;2023-03-14T08:27:48;6.90;64.80
12006;DHT22;6062;47.294;12.182;2023-03-14T08:30:15;7.10;64.80
12006;DHT22;6062;47.294;12.182;2023-03-14T08:32:43;7.20;64.70
12006;DHT22;6062;47.294;12.182;2023-03-14T08:35:10;7.30;64.90
12006;DHT22;6062;47.294;12.182;2023-03-14T08:37:36;7.40;64.60
12006;DHT22;6062;47.294;12.182;2023-03-14T08:40:03;7.60;64.30
12006;DHT22;6062;47.294;12.182;2023-03-14T08:42:32;7.70;64.00
12006;DHT22;6062;47.294;12.182;2023-03-14T08:44:58;7.90;63.60
12006;DHT22;6062;47.294;12.182;2023-03-14T08:47:24;8.10;63.30
12006;DHT22;6062;47.294;12.182;2023-03-14T08:49:50;8.20;62.90
12006;DHT22;6062;47.294;12.182;2023-03-14T08:52:16;8.40;62.60
12006;DHT22;6062;47.294;12.182;2023-03-14T08:54:46;8.50;62.20
12006;DHT22;6062;47.294;12.182;2023-03-14T08:57:12;8.70;61.90
12006;DHT22;6062;47.294;12.182;2023-03-14T08:59:38;8.70;61.40
12006;DHT22;6062;47.294;12.182;2023-03-14T09:02:04;8.90;61.10
12006;DHT22;6062;47.294;12.182;2023-03-14T09:04:31;9.00;60.90
12006;DHT22;6062;47.294;12.182;2023-03-14T09:25:06;9.70;58.70
12006;DHT22;6062;47.294;12.182;2023-03-14T09:27:32;9.80;58.50
12006;DHT22;6062;47.294;12.182;2023-03-14T09:29:58;9.80;58.30
12006;DHT22;6062;47.294;12.182;2023-03-14T09:32:23;9.90;58.10
12006;DHT22;6062;47.294;12.182;2023-03-14T09:34:49;9.90;58.00
12006;DHT22;6062;47.294;12.182;2023-03-14T09:37:15;9.90;57.90
12006;DHT22;6062;47.294;12.182;2023-03-14T09:39:41;10.00;57.90
12006;DHT22;6062;47.294;12.182;2023-03-14T09:42:11;10.00;57.90
12006;DHT22;6062;47.294;12.182;2023-03-14T09:44:51;10.10;57.60
12006;DHT22;6062;47.294;12.182;2023-03-14T09:47:31;10.10;57.50
12006;DHT22;6062;47.294;12.182;2023-03-14T09:50:00;10.10;57.20
12006;DHT22;6062;47.294;12.182;2023-03-14T09:52:35;10.20;57.00
12006;DHT22;6062;47.294;12.182;2023-03-14T09:55:10;10.20;57.00
12006;DHT22;6062;47.294;12.182;2023-03-14T09:57:39;10.20;56.60
12006;DHT22;6062;47.294;12.182;2023-03-14T10:02:51;10.10;55.00
12006;DHT22;6062;47.294;12.182;2023-03-14T10:05:22;10.00;54.90
12006;DHT22;6062;47.294;12.182;2023-03-14T10:07:49;9.70;55.10
12006;DHT22;6062;47.294;12.182;2023-03-14T10:10:19;9.60;55.50
12006;DHT22;6062;47.294;12.182;2023-03-14T10:12:48;9.50;56.00
12006;DHT22;6062;47.294;12.182;2023-03-14T10:15:31;9.40;55.70
12006;DHT22;6062;47.294;12.182;2023-03-14T10:18:01;9.30;55.20
12006;DHT22;6062;47.294;12.182;2023-03-14T10:23:26;9.00;54.00
12006;DHT22;6062;47.294;12.182;2023-03-14T10:26:12;8.80;54.10
12006;DHT22;6062;47.294;12.182;2023-03-14T10:28:42;8.50;54.60
12006;DHT22;6062;47.294;12.182;2023-03-14T10:31:23;8.20;54.80
12006;DHT22;6062;47.294;12.182;2023-03-14T10:34:04;8.00;55.20
12006;DHT22;6062;47.294;12.182;2023-03-14T10:36:32;7.80;55.70
12006;DHT22;6062;47.294;12.182;2023-03-14T10:42:21;7.50;56.10
12006;DHT22;6062;47.294;12.182;2023-03-14T10:44:57;7.40;56.40
12006;DHT22;6062;47.294;12.182;2023-03-14T10:47:26;7.40;56.80
12006;DHT22;6062;47.294;12.182;2023-03-14T10:49:54;7.30;57.20
12006;DHT22;6062;47.294;12.182;2023-03-14T10:52:26;7.30;57.50
12006;DHT22;6062;47.294;12.182;2023-03-14T10:55:10;7.30;57.70
12006;DHT22;6062;47.294;12.182;2023-03-14T10:57:41;7.30;57.90
12006;DHT22;6062;47.294;12.182;2023-03-14T11:00:20;7.30;57.90
12006;DHT22;6062;47.294;12.182;2023-03-14T11:03:04;7.30;57.90
12006;DHT22;6062;47.294;12.182;2023-03-14T11:05:41;7.40;57.80
12006;DHT22;6062;47.294;12.182;2023-03-14T11:08:38;7.40;57.70
12006;DHT22;6062;47.294;12.182;2023-03-14T11:11:23;7.40;57.90
12006;DHT22;6062;47.294;12.182;2023-03-14T11:19:45;7.40;58.50
12006;DHT22;6062;47.294;12.182;2023-03-14T11:25:55;7.40;58.50
12006;DHT22;6062;47.294;12.182;2023-03-14T11:28:38;7.40;58.90
12006;DHT22;6062;47.294;12.182;2023-03-14T11:31:28;7.50;59.40
12006;DHT22;6062;47.294;12.182;2023-03-14T11:34:01;7.50;59.60
12006;DHT22;6062;47.294;12.182;2023-03-14T11:36:44;7.60;59.40
12006;DHT22;6062;47.294;12.182;2023-03-14T11:39:56;7.60;59.50
12006;DHT22;6062;47.294;12.182;2023-03-14T11:42:32;7.70;59.50
12006;DHT22;6062;47.294;12.182;2023-03-14T11:44:59;7.80;59.40
12006;DHT22;6062;47.294;12.182;2023-03-14T11:47:31;7.90;59.40
12006;DHT22;6062;47.294;12.182;2023-03-14T11:50:13;7.90;59.30
12006;DHT22;6062;47.294;12.182;2023-03-14T11:55:32;8.20;59.10
12006;DHT22;6062;47.294;12.182;2023-03-14T11:58:08;8.20;58.70
12006;DHT22;6062;47.294;12.182;2023-03-14T12:00:38;8.30;58.70
12006;DHT22;6062;47.294;12.182;2023-03-14T12:06:02;8.40;57.60
12006;DHT22;6062;47.294;12.182;2023-03-14T12:08:42;8.40;58.50
12006;DHT22;6062;47.294;12.182;2023-03-14T12:14:18;8.80;59.50
12006;DHT22;6062;47.294;12.182;2023-03-14T12:17:17;9.00;60.00
12006;DHT22;6062;47.294;12.182;2023-03-14T12:20:15;9.40;59.80
12006;DHT22;6062;47.294;12.182;2023-03-14T12:22:53;9.80;58.60
12006;DHT22;6062;47.294;12.182;2023-03-14T12:25:26;10.20;57.60
12006;DHT22;6062;47.294;12.182;2023-03-14T12:41:21;11.60;55.50
12006;DHT22;6062;47.294;12.182;2023-03-14T12:43:52;11.80;54.30
12006;DHT22;6062;47.294;12.182;2023-03-14T12:48:45;12.30;53.90
12006;DHT22;6062;47.294;12.182;2023-03-14T12:51:39;12.60;53.20
12006;DHT22;6062;47.294;12.182;2023-03-14T13:06:00;13.00;49.80
12006;DHT22;6062;47.294;12.182;2023-03-14T13:11:15;12.90;49.50
12006;DHT22;6062;47.294;12.182;2023-03-14T13:13:46;12.90;49.40
12006;DHT22;6062;47.294;12.182;2023-03-14T13:16:17;12.70;49.50
12006;DHT22;6062;47.294;12.182;2023-03-14T13:18:47;12.60;49.70
12006;DHT22;6062;47.294;12.182;2023-03-14T13:21:21;12.40;49.90
12006;DHT22;6062;47.294;12.182;2023-03-14T13:26:24;12.20;50.30
12006;DHT22;6062;47.294;12.182;2023-03-14T13:28:57;12.10;50.50
12006;DHT22;6062;47.294;12.182;2023-03-14T13:31:25;12.00;50.60
12006;DHT22;6062;47.294;12.182;2023-03-14T13:34:04;12.00;50.80
12006;DHT22;6062;47.294;12.182;2023-03-14T13:36:36;11.90;50.80
12006;DHT22;6062;47.294;12.182;2023-03-14T13:39:02;11.90;50.90
12006;DHT22;6062;47.294;12.182;2023-03-14T13:41:38;11.80;50.90
12006;DHT22;6062;47.294;12.182;2023-03-14T13:44:07;11.80;51.00
12006;DHT22;6062;47.294;12.182;2023-03-14T13:46:47;11.70;50.90
12006;DHT22;6062;47.294;12.182;2023-03-14T13:49:22;11.70;50.80
12006;DHT22;6062;47.294;12.182;2023-03-14T13:51:50;11.70;50.80
12006;DHT22;6062;47.294;12.182;2023-03-14T13:54:19;11.60;50.90
12006;DHT22;6062;47.294;12.182;2023-03-14T13:56:46;11.60;51.20
12006;DHT22;6062;47.294;12.182;2023-03-14T14:01:50;11.50;51.30
12006;DHT22;6062;47.294;12.182;2023-03-14T14:04:21;11.40;51.50
12006;DHT22;6062;47.294;12.182;2023-03-14T14:07:09;11.30;51.50
12006;DHT22;6062;47.294;12.182;2023-03-14T14:09:41;11.20;51.70
12006;DHT22;6062;47.294;12.182;2023-03-14T14:12:14;11.20;51.80
12006;DHT22;6062;47.294;12.182;2023-03-14T14:14:49;11.10;51.60
12006;DHT22;6062;47.294;12.182;2023-03-14T14:17:26;11.00;51.80
12006;DHT22;6062;47.294;12.182;2023-03-14T14:23:07;10.70;51.50
12006;DHT22;6062;47.294;12.182;2023-03-14T14:25:37;10.50;51.40
12006;DHT22;6062;47.294;12.182;2023-03-14T14:28:17;10.30;51.60
12006;DHT22;6062;47.294;12.182;2023-03-14T14:33:41;9.70;52.70
12006;DHT22;6062;47.294;12.182;2023-03-14T14:36:37;9.50;53.60
12006;DHT22;6062;47.294;12.182;2023-03-14T14:39:20;9.30;54.80
12006;DHT22;6062;47.294;12.182;2023-03-14T14:41:49;9.20;55.50
12006;DHT22;6062;47.294;12.182;2023-03-14T14:44:21;9.20;56.10
12006;DHT22;6062;47.294;12.182;2023-03-14T14:46:55;9.30;56.60
12006;DHT22;6062;47.294;12.182;2023-03-14T14:49:29;9.40;56.50
12006;DHT22;6062;47.294;12.182;2023-03-14T14:52:18;9.60;56.10
12006;DHT22;6062;47.294;12.182;2023-03-14T14:54:48;9.70;55.30
12006;DHT22;6062;47.294;12.182;2023-03-14T14:57:25;9.80;54.80
12006;DHT22;6062;47.294;12.182;2023-03-14T15:00:19;9.80;54.30
12006;DHT22;6062;47.294;12.182;2023-03-14T15:02:53;9.80;53.80
12006;DHT22;6062;47.294;12.182;2023-03-14T15:05:25;9.80;53.50
12006;DHT22;6062;47.294;12.182;2023-03-14T15:07:52;9.70;53.30
12006;DHT22;6062;47.294;12.182;2023-03-14T15:10:23;9.60;53.20
12006;DHT22;6062;47.294;12.182;2023-03-14T15:12:51;9.40;53.30
12006;DHT22;6062;47.294;12.182;2023-03-14T15:15:17;9.30;53.30
12006;DHT22;6062;47.294;12.182;2023-03-14T15:17:43;9.10;53.60
12006;DHT22;6062;47.294;12.182;2023-03-14T15:20:12;8.90;53.80
12006;DHT22;6062;47.294;12.182;2023-03-14T15:22:42;8.70;54.00
12006;DHT22;6062;47.294;12.182;2023-03-14T15:25:09;8.50;54.30
12006;DHT22;6062;47.294;12.182;2023-03-14T15:27:36;8.20;54.70
12006;DHT22;6062;47.294;12.182;2023-03-14T15:30:05;8.10;55.80
12006;DHT22;6062;47.294;12.182;2023-03-14T15:32:31;7.80;56.10
12006;DHT22;6062;47.294;12.182;2023-03-14T15:34:57;7.60;56.10
12006;DHT22;6062;47.294;12.182;2023-03-14T15:37:22;7.30;56.40
12006;DHT22;6062;47.294;12.182;2023-03-14T15:39:48;7.10;56.80
12006;DHT22;6062;47.294;12.182;2023-03-14T15:42:14;6.80;57.30
12006;DHT22;6062;47.294;12.182;2023-03-14T15:44:40;6.60;57.60
12006;DHT22;6062;47.294;12.182;2023-03-14T15:47:06;6.40;58.50
12006;DHT22;6062;47.294;12.182;2023-03-14T15:49:35;6.20;58.20
12006;DHT22;6062;47.294;12.182;2023-03-14T15:52:00;6.10;58.40
12006;DHT22;6062;47.294;12.182;2023-03-14T15:54:27;5.90;58.70
12006;DHT22;6062;47.294;12.182;2023-03-14T15:56:54;5.80;59.20
12006;DHT22;6062;47.294;12.182;2023-03-14T15:59:21;5.60;59.20
12006;DHT22;6062;47.294;12.182;2023-03-14T16:01:47;5.50;59.30
12006;DHT22;6062;47.294;12.182;2023-03-14T16:04:13;5.40;59.90
12006;DHT22;6062;47.294;12.182;2023-03-14T16:06:39;5.30;60.50
12006;DHT22;6062;47.294;12.182;2023-03-14T16:09:06;5.30;61.10
12006;DHT22;6062;47.294;12.182;2023-03-14T16:11:32;5.20;61.70
12006;DHT22;6062;47.294;12.182;2023-03-14T16:13:58;5.10;61.80
12006;DHT22;6062;47.294;12.182;2023-03-14T16:16:24;5.10;62.20
12006;DHT22;6062;47.294;12.182;2023-03-14T16:18:49;5.00;62.30
12006;DHT22;6062;47.294;12.182;2023-03-14T16:21:17;5.00;62.80
12006;DHT22;6062;47.294;12.182;2023-03-14T16:23:44;5.00;63.40
12006;DHT22;6062;47.294;12.182;2023-03-14T16:26:16;4.90;63.80
12006;DHT22;6062;47.294;12.182;2023-03-14T16:28:43;4.90;64.10
12006;DHT22;6062;47.294;12.182;2023-03-14T16:31:12;4.80;64.00
12006;DHT22;6062;47.294;12.182;2023-03-14T16:33:41;4.80;64.30
12006;DHT22;6062;47.294;12.182;2023-03-14T16:36:10;4.80;64.40
12006;DHT22;6062;47.294;12.182;2023-03-14T16:38:38;4.70;64.20
12006;DHT22;6062;47.294;12.182;2023-03-14T16:41:09;4.70;64.30
12006;DHT22;6062;47.294;12.182;2023-03-14T16:43:40;4.60;64.60
12006;DHT22;6062;47.294;12.182;2023-03-14T16:46:09;4.60;64.50
12006;DHT22;6062;47.294;12.182;2023-03-14T16:48:37;4.50;64.30
12006;DHT22;6062;47.294;12.182;2023-03-14T16:51:03;4.50;64.30
12006;DHT22;6062;47.294;12.182;2023-03-14T16:53:29;4.40;64.70
12006;DHT22;6062;47.294;12.182;2023-03-14T16:55:55;4.40;64.70
12006;DHT22;6062;47.294;12.182;2023-03-14T16:58:23;4.30;64.60
12006;DHT22;6062;47.294;12.182;2023-03-14T17:00:48;4.30;64.60
12006;DHT22;6062;47.294;12.182;2023-03-14T17:03:15;4.20;64.70
12006;DHT22;6062;47.294;12.182;2023-03-14T17:05:50;4.20;65.00
12006;DHT22;6062;47.294;12.182;2023-03-14T17:08:17;4.10;65.10
12006;DHT22;6062;47.294;12.182;2023-03-14T17:10:44;4.10;65.00
12006;DHT22;6062;47.294;12.182;2023-03-14T17:13:11;4.00;65.10
12006;DHT22;6062;47.294;12.182;2023-03-14T17:15:37;4.00;65.20
12006;DHT22;6062;47.294;12.182;2023-03-14T17:18:03;3.90;65.40
12006;DHT22;6062;47.294;12.182;2023-03-14T17:20:30;3.90;65.70
12006;DHT22;6062;47.294;12.182;2023-03-14T17:22:56;3.80;66.10
12006;DHT22;6062;47.294;12.182;2023-03-14T17:25:21;3.80;66.10
12006;DHT22;6062;47.294;12.182;2023-03-14T17:27:47;3.80;66.30
12006;DHT22;6062;47.294;12.182;2023-03-14T17:30:13;3.80;66.40
12006;DHT22;6062;47.294;12.182;2023-03-14T17:32:39;3.80;66.70
12006;DHT22;6062;47.294;12.182;2023-03-14T17:35:04;3.70;67.00
12006;DHT22;6062;47.294;12.182;2023-03-14T17:37:30;3.70;67.40